sensor_id;sensor_type;location;lat;lon;timestamp;P1;durP1;ratioP1;P2;durP2;ratioP2
55756;SDS011;41676;44.610;44.078;2023-10-13T00:04:21;4.00;;;1.90;;
55756;SDS011;41676;44.610;44.078;2023-10-13T00:09:23;5.03;;;2.05;;
55756;SDS011;41676;44.610;44.078;2023-10-13T00:14:25;5.82;;;2.08;;
55756;SDS011;41676;44.610;44.078;2023-10-13T00:19:36;3.67;;;1.77;;
55756;SDS011;41676;44.610;44.078;2023-10-13T00:24:39;3.15;;;1.88;;
55756;SDS011;41676;44.610;44.078;2023-10-13T00:29:48;4.10;;;2.33;;
55756;SDS011;41676;44.610;44.078;2023-10-13T00:34:50;3.60;;;1.90;;
55756;SDS011;41676;44.610;44.078;2023-10-13T00:39:56;5.13;;;2.55;;
55756;SDS011;41676;44.610;44.078;2023-10-13T00:44:58;4.47;;;1.92;;
55756;SDS011;41676;44.610;44.078;2023-10-13T00:50:01;9.55;;;2.53;;
55756;SDS011;41676;44.610;44.078;2023-10-13T00:55:02;3.72;;;2.20;;
55756;SDS011;41676;44.610;44.078;2023-10-13T01:00:05;3.72;;;2.25;;
55756;SDS011;41676;44.610;44.078;2023-10-13T01:05:19;6.88;;;2.80;;
55756;SDS011;41676;44.610;44.078;2023-10-13T01:10:20;4.55;;;2.70;;
55756;SDS011;41676;44.610;44.078;2023-10-13T01:15:26;5.50;;;2.20;;
55756;SDS011;41676;44.610;44.078;2023-10-13T01:20:29;4.43;;;2.40;;
55756;SDS011;41676;44.610;44.078;2023-10-13T01:25:30;4.07;;;2.10;;
55756;SDS011;41676;44.610;44.078;2023-10-13T01:30:31;7.65;;;2.83;;
55756;SDS011;41676;44.610;44.078;2023-10-13T01:35:32;7.00;;;2.80;;
55756;SDS011;41676;44.610;44.078;2023-10-13T01:40:37;9.10;;;3.05;;
55756;SDS011;41676;44.610;44.078;2023-10-13T01:45:38;6.00;;;2.80;;
55756;SDS011;41676;44.610;44.078;2023-10-13T01:50:49;5.25;;;2.38;;
55756;SDS011;41676;44.610;44.078;2023-10-13T01:56:00;8.82;;;2.78;;
55756;SDS011;41676;44.610;44.078;2023-10-13T02:01:05;10.68;;;2.83;;
55756;SDS011;41676;44.610;44.078;2023-10-13T02:06:07;13.27;;;3.33;;
55756;SDS011;41676;44.610;44.078;2023-10-13T02:11:11;6.10;;;2.55;;
55756;SDS011;41676;44.610;44.078;2023-10-13T02:16:11;8.27;;;3.00;;
55756;SDS011;41676;44.610;44.078;2023-10-13T02:21:13;11.00;;;3.05;;
55756;SDS011;41676;44.610;44.078;2023-10-13T02:26:14;13.82;;;3.17;;
55756;SDS011;41676;44.610;44.078;2023-10-13T02:31:16;10.25;;;3.13;;
55756;SDS011;41676;44.610;44.078;2023-10-13T02:36:20;19.33;;;3.17;;
55756;SDS011;41676;44.610;44.078;2023-10-13T02:41:36;10.07;;;3.10;;
55756;SDS011;41676;44.610;44.078;2023-10-13T02:46:40;21.10;;;3.25;;
55756;SDS011;41676;44.610;44.078;2023-10-13T02:51:41;27.13;;;3.28;;
55756;SDS011;41676;44.610;44.078;2023-10-13T02:56:45;15.83;;;3.27;;
55756;SDS011;41676;44.610;44.078;2023-10-13T03:02:06;48.20;;;4.55;;
55756;SDS011;41676;44.610;44.078;2023-10-13T03:07:26;11.13;;;3.00;;
55756;SDS011;41676;44.610;44.078;2023-10-13T03:12:30;26.60;;;3.22;;
55756;SDS011;41676;44.610;44.078;2023-10-13T03:17:33;11.02;;;2.40;;
55756;SDS011;41676;44.610;44.078;2023-10-13T03:22:34;29.23;;;3.05;;
55756;SDS011;41676;44.610;44.078;2023-10-13T03:27:35;42.55;;;4.57;;
55756;SDS011;41676;44.610;44.078;2023-10-13T03:32:58;18.75;;;2.97;;
55756;SDS011;41676;44.610;44.078;2023-10-13T03:38:01;24.85;;;3.63;;
55756;SDS011;41676;44.610;44.078;2023-10-13T03:43:02;20.02;;;3.20;;
55756;SDS011;41676;44.610;44.078;2023-10-13T03:48:12;19.98;;;2.97;;
55756;SDS011;41676;44.610;44.078;2023-10-13T03:53:26;11.45;;;3.75;;
55756;SDS011;41676;44.610;44.078;2023-10-13T03:58:35;26.95;;;4.57;;
55756;SDS011;41676;44.610;44.078;2023-10-13T04:03:39;17.10;;;3.42;;
55756;SDS011;41676;44.610;44.078;2023-10-13T04:08:56;10.10;;;2.88;;
55756;SDS011;41676;44.610;44.078;2023-10-13T04:14:15;9.68;;;3.00;;
55756;SDS011;41676;44.610;44.078;2023-10-13T04:19:42;10.30;;;3.00;;
55756;SDS011;41676;44.610;44.078;2023-10-13T04:25:02;7.47;;;3.05;;
55756;SDS011;41676;44.610;44.078;2023-10-13T04:30:23;8.15;;;2.90;;
55756;SDS011;41676;44.610;44.078;2023-10-13T04:35:38;8.82;;;2.65;;
55756;SDS011;41676;44.610;44.078;2023-10-13T04:40:47;5.20;;;2.35;;
55756;SDS011;41676;44.610;44.078;2023-10-13T04:45:59;9.18;;;2.80;;
55756;SDS011;41676;44.610;44.078;2023-10-13T04:51:14;9.93;;;3.22;;
55756;SDS011;41676;44.610;44.078;2023-10-13T04:56:34;9.27;;;3.60;;
55756;SDS011;41676;44.610;44.078;2023-10-13T05:01:42;49.55;;;6.05;;
55756;SDS011;41676;44.610;44.078;2023-10-13T05:07:07;22.60;;;5.10;;
55756;SDS011;41676;44.610;44.078;2023-10-13T05:12:26;14.23;;;4.80;;
55756;SDS011;41676;44.610;44.078;2023-10-13T05:17:45;12.77;;;4.80;;
55756;SDS011;41676;44.610;44.078;2023-10-13T05:23:04;7.22;;;3.88;;
55756;SDS011;41676;44.610;44.078;2023-10-13T05:28:24;10.90;;;4.65;;
55756;SDS011;41676;44.610;44.078;2023-10-13T05:33:43;6.72;;;3.83;;
55756;SDS011;41676;44.610;44.078;2023-10-13T05:39:02;5.25;;;3.67;;
55756;SDS011;41676;44.610;44.078;2023-10-13T05:44:21;7.28;;;3.42;;
55756;SDS011;41676;44.610;44.078;2023-10-13T05:49:37;6.97;;;4.25;;
55756;SDS011;41676;44.610;44.078;2023-10-13T05:54:50;7.10;;;3.78;;
55756;SDS011;41676;44.610;44.078;2023-10-13T06:00:09;11.13;;;3.85;;
55756;SDS011;41676;44.610;44.078;2023-10-13T06:05:29;10.27;;;3.60;;
55756;SDS011;41676;44.610;44.078;2023-10-13T06:10:48;5.72;;;3.70;;
55756;SDS011;41676;44.610;44.078;2023-10-13T06:16:08;7.30;;;3.38;;
55756;SDS011;41676;44.610;44.078;2023-10-13T06:21:29;9.48;;;3.63;;
55756;SDS011;41676;44.610;44.078;2023-10-13T06:26:48;6.90;;;3.85;;
55756;SDS011;41676;44.610;44.078;2023-10-13T06:32:07;5.70;;;3.58;;
55756;SDS011;41676;44.610;44.078;2023-10-13T06:37:12;11.48;;;3.70;;
55756;SDS011;41676;44.610;44.078;2023-10-13T06:42:31;10.38;;;3.33;;
55756;SDS011;41676;44.610;44.078;2023-10-13T06:47:35;11.05;;;3.33;;
55756;SDS011;41676;44.610;44.078;2023-10-13T06:52:43;7.35;;;3.08;;
55756;SDS011;41676;44.610;44.078;2023-10-13T06:57:44;10.68;;;4.03;;
55756;SDS011;41676;44.610;44.078;2023-10-13T07:02:46;9.93;;;3.63;;
55756;SDS011;41676;44.610;44.078;2023-10-13T07:07:47;10.07;;;3.50;;
55756;SDS011;41676;44.610;44.078;2023-10-13T07:12:57;9.35;;;3.58;;
55756;SDS011;41676;44.610;44.078;2023-10-13T07:18:00;10.27;;;3.40;;
55756;SDS011;41676;44.610;44.078;2023-10-13T07:23:05;12.52;;;4.38;;
55756;SDS011;41676;44.610;44.078;2023-10-13T07:28:07;8.80;;;4.03;;
55756;SDS011;41676;44.610;44.078;2023-10-13T07:33:08;5.35;;;3.78;;
55756;SDS011;41676;44.610;44.078;2023-10-13T07:38:13;7.88;;;3.70;;
55756;SDS011;41676;44.610;44.078;2023-10-13T07:43:14;9.30;;;3.80;;
55756;SDS011;41676;44.610;44.078;2023-10-13T07:48:21;7.68;;;3.60;;
55756;SDS011;41676;44.610;44.078;2023-10-13T07:53:21;5.70;;;3.72;;
55756;SDS011;41676;44.610;44.078;2023-10-13T07:58:28;6.50;;;3.75;;
55756;SDS011;41676;44.610;44.078;2023-10-13T08:03:35;7.70;;;4.10;;
55756;SDS011;41676;44.610;44.078;2023-10-13T08:08:45;6.85;;;4.20;;
55756;SDS011;41676;44.610;44.078;2023-10-13T08:13:50;11.27;;;3.80;;
55756;SDS011;41676;44.610;44.078;2023-10-13T08:18:56;6.05;;;3.67;;
55756;SDS011;41676;44.610;44.078;2023-10-13T08:23:57;9.95;;;4.40;;
55756;SDS011;41676;44.610;44.078;2023-10-13T08:28:59;9.32;;;4.20;;
55756;SDS011;41676;44.610;44.078;2023-10-13T08:34:18;8.75;;;3.90;;
55756;SDS011;41676;44.610;44.078;2023-10-13T08:39:24;10.82;;;4.78;;
55756;SDS011;41676;44.610;44.078;2023-10-13T08:44:44;8.02;;;5.00;;
55756;SDS011;41676;44.610;44.078;2023-10-13T08:49:52;7.22;;;3.85;;
55756;SDS011;41676;44.610;44.078;2023-10-13T08:55:10;9.88;;;3.83;;
55756;SDS011;41676;44.610;44.078;2023-10-13T09:00:30;10.00;;;4.28;;
55756;SDS011;41676;44.610;44.078;2023-10-13T09:05:55;14.60;;;4.15;;
55756;SDS011;41676;44.610;44.078;2023-10-13T09:11:06;10.10;;;3.42;;
55756;SDS011;41676;44.610;44.078;2023-10-13T09:16:13;6.85;;;3.55;;
55756;SDS011;41676;44.610;44.078;2023-10-13T09:21:37;9.05;;;3.33;;
55756;SDS011;41676;44.610;44.078;2023-10-13T09:26:41;9.25;;;3.75;;
55756;SDS011;41676;44.610;44.078;2023-10-13T09:31:42;12.95;;;4.00;;
55756;SDS011;41676;44.610;44.078;2023-10-13T09:36:45;9.23;;;4.03;;
55756;SDS011;41676;44.610;44.078;2023-10-13T09:41:48;12.98;;;4.35;;
55756;SDS011;41676;44.610;44.078;2023-10-13T09:46:53;11.05;;;3.75;;
55756;SDS011;41676;44.610;44.078;2023-10-13T09:52:03;8.45;;;3.83;;
55756;SDS011;41676;44.610;44.078;2023-10-13T09:57:08;12.00;;;3.42;;
55756;SDS011;41676;44.610;44.078;2023-10-13T10:02:19;7.03;;;2.97;;
55756;SDS011;41676;44.610;44.078;2023-10-13T10:07:26;8.40;;;3.10;;
55756;SDS011;41676;44.610;44.078;2023-10-13T10:18:02;8.40;;;3.05;;
55756;SDS011;41676;44.610;44.078;2023-10-13T10:23:05;7.43;;;2.95;;
55756;SDS011;41676;44.610;44.078;2023-10-13T10:28:10;9.55;;;2.30;;
55756;SDS011;41676;44.610;44.078;2023-10-13T10:33:15;6.88;;;2.30;;
55756;SDS011;41676;44.610;44.078;2023-10-13T10:38:18;8.63;;;2.03;;
55756;SDS011;41676;44.610;44.078;2023-10-13T10:43:37;9.95;;;2.20;;
55756;SDS011;41676;44.610;44.078;2023-10-13T10:48:47;22.02;;;3.17;;
55756;SDS011;41676;44.610;44.078;2023-10-13T10:53:56;12.30;;;2.58;;
55756;SDS011;41676;44.610;44.078;2023-10-13T10:59:11;4.72;;;1.92;;
55756;SDS011;41676;44.610;44.078;2023-10-13T11:04:25;7.10;;;1.90;;
55756;SDS011;41676;44.610;44.078;2023-10-13T11:09:35;13.25;;;2.42;;
55756;SDS011;41676;44.610;44.078;2023-10-13T11:14:45;4.65;;;1.38;;
55756;SDS011;41676;44.610;44.078;2023-10-13T11:19:50;10.52;;;1.92;;
55756;SDS011;41676;44.610;44.078;2023-10-13T11:24:51;8.45;;;1.58;;
55756;SDS011;41676;44.610;44.078;2023-10-13T11:29:54;9.68;;;1.98;;
55756;SDS011;41676;44.610;44.078;2023-10-13T11:34:57;11.48;;;1.95;;
55756;SDS011;41676;44.610;44.078;2023-10-13T11:39:58;14.20;;;2.10;;
55756;SDS011;41676;44.610;44.078;2023-10-13T11:44:59;5.57;;;1.80;;
55756;SDS011;41676;44.610;44.078;2023-10-13T11:50:19;14.20;;;2.20;;
55756;SDS011;41676;44.610;44.078;2023-10-13T11:55:33;4.60;;;1.70;;
55756;SDS011;41676;44.610;44.078;2023-10-13T12:00:33;7.63;;;1.98;;
55756;SDS011;41676;44.610;44.078;2023-10-13T12:06:01;40.25;;;23.08;;
55756;SDS011;41676;44.610;44.078;2023-10-13T12:11:20;36.22;;;12.57;;
55756;SDS011;41676;44.610;44.078;2023-10-13T12:16:30;11.07;;;4.53;;
55756;SDS011;41676;44.610;44.078;2023-10-13T12:26:37;13.45;;;5.30;;
55756;SDS011;41676;44.610;44.078;2023-10-13T12:31:41;24.83;;;8.27;;
55756;SDS011;41676;44.610;44.078;2023-10-13T12:36:51;40.17;;;7.85;;
55756;SDS011;41676;44.610;44.078;2023-10-13T12:42:05;21.50;;;5.28;;
55756;SDS011;41676;44.610;44.078;2023-10-13T12:47:45;22.80;;;4.57;;
55756;SDS011;41676;44.610;44.078;2023-10-13T12:53:04;9.55;;;2.60;;
55756;SDS011;41676;44.610;44.078;2023-10-13T12:58:05;50.15;;;21.42;;
55756;SDS011;41676;44.610;44.078;2023-10-13T13:03:06;28.13;;;8.68;;
55756;SDS011;41676;44.610;44.078;2023-10-13T13:08:11;51.47;;;20.27;;
55756;SDS011;41676;44.610;44.078;2023-10-13T13:13:19;13.48;;;4.30;;
55756;SDS011;41676;44.610;44.078;2023-10-13T13:18:24;20.40;;;5.82;;
55756;SDS011;41676;44.610;44.078;2023-10-13T13:23:25;26.52;;;7.85;;
55756;SDS011;41676;44.610;44.078;2023-10-13T13:28:26;34.67;;;12.00;;
55756;SDS011;41676;44.610;44.078;2023-10-13T13:33:29;36.38;;;13.65;;
55756;SDS011;41676;44.610;44.078;2023-10-13T13:38:33;24.30;;;7.10;;
55756;SDS011;41676;44.610;44.078;2023-10-13T13:43:34;53.60;;;15.80;;
55756;SDS011;41676;44.610;44.078;2023-10-13T13:48:38;40.83;;;15.57;;
55756;SDS011;41676;44.610;44.078;2023-10-13T13:53:41;48.25;;;12.07;;
55756;SDS011;41676;44.610;44.078;2023-10-13T13:58:46;56.75;;;12.10;;
55756;SDS011;41676;44.610;44.078;2023-10-13T14:03:53;50.65;;;14.68;;
55756;SDS011;41676;44.610;44.078;2023-10-13T14:08:57;34.70;;;11.23;;
55756;SDS011;41676;44.610;44.078;2023-10-13T14:14:32;51.97;;;13.35;;
55756;SDS011;41676;44.610;44.078;2023-10-13T14:19:34;55.40;;;11.10;;
55756;SDS011;41676;44.610;44.078;2023-10-13T14:24:40;92.85;;;11.73;;
55756;SDS011;41676;44.610;44.078;2023-10-13T14:29:47;70.32;;;9.32;;
55756;SDS011;41676;44.610;44.078;2023-10-13T14:34:53;24.58;;;5.93;;
55756;SDS011;41676;44.610;44.078;2023-10-13T14:39:55;125.97;;;12.48;;
55756;SDS011;41676;44.610;44.078;2023-10-13T14:45:00;80.82;;;9.98;;
55756;SDS011;41676;44.610;44.078;2023-10-13T14:50:01;30.00;;;5.72;;
55756;SDS011;41676;44.610;44.078;2023-10-13T14:55:04;38.05;;;5.60;;
55756;SDS011;41676;44.610;44.078;2023-10-13T15:00:07;32.43;;;5.30;;
55756;SDS011;41676;44.610;44.078;2023-10-13T15:05:13;33.50;;;5.28;;
55756;SDS011;41676;44.610;44.078;2023-10-13T15:10:16;41.65;;;4.78;;
55756;SDS011;41676;44.610;44.078;2023-10-13T15:15:17;45.53;;;6.30;;
55756;SDS011;41676;44.610;44.078;2023-10-13T15:20:19;44.55;;;6.18;;
55756;SDS011;41676;44.610;44.078;2023-10-13T15:25:19;58.10;;;9.40;;
55756;SDS011;41676;44.610;44.078;2023-10-13T15:30:29;46.30;;;9.82;;
55756;SDS011;41676;44.610;44.078;2023-10-13T15:35:52;43.07;;;10.00;;
55756;SDS011;41676;44.610;44.078;2023-10-13T15:40:53;46.05;;;11.23;;
55756;SDS011;41676;44.610;44.078;2023-10-13T15:45:54;33.03;;;11.35;;
55756;SDS011;41676;44.610;44.078;2023-10-13T15:50:57;36.67;;;11.25;;
55756;SDS011;41676;44.610;44.078;2023-10-13T15:55:58;28.48;;;10.88;;
55756;SDS011;41676;44.610;44.078;2023-10-13T16:00:59;39.92;;;9.68;;
55756;SDS011;41676;44.610;44.078;2023-10-13T16:06:02;20.23;;;7.45;;
55756;SDS011;41676;44.610;44.078;2023-10-13T16:11:11;20.48;;;6.13;;
55756;SDS011;41676;44.610;44.078;2023-10-13T16:16:14;16.17;;;6.03;;
55756;SDS011;41676;44.610;44.078;2023-10-13T16:21:16;13.18;;;5.78;;
55756;SDS011;41676;44.610;44.078;2023-10-13T16:26:17;15.52;;;6.07;;
55756;SDS011;41676;44.610;44.078;2023-10-13T16:31:21;24.40;;;7.20;;
55756;SDS011;41676;44.610;44.078;2023-10-13T16:36:22;22.52;;;6.70;;
55756;SDS011;41676;44.610;44.078;2023-10-13T16:41:24;24.02;;;6.75;;
55756;SDS011;41676;44.610;44.078;2023-10-13T16:46:27;23.42;;;7.70;;
55756;SDS011;41676;44.610;44.078;2023-10-13T16:51:27;44.55;;;8.35;;
55756;SDS011;41676;44.610;44.078;2023-10-13T16:56:29;22.67;;;7.22;;
55756;SDS011;41676;44.610;44.078;2023-10-13T17:01:30;17.40;;;6.50;;
55756;SDS011;41676;44.610;44.078;2023-10-13T17:06:31;26.52;;;7.80;;
55756;SDS011;41676;44.610;44.078;2023-10-13T17:11:31;24.02;;;7.22;;
55756;SDS011;41676;44.610;44.078;2023-10-13T17:16:32;21.67;;;7.13;;
55756;SDS011;41676;44.610;44.078;2023-10-13T17:21:33;27.83;;;7.80;;
55756;SDS011;41676;44.610;44.078;2023-10-13T17:26:34;31.27;;;7.72;;
55756;SDS011;41676;44.610;44.078;2023-10-13T17:31:35;26.38;;;12.73;;
55756;SDS011;41676;44.610;44.078;2023-10-13T17:36:36;54.50;;;36.40;;
55756;SDS011;41676;44.610;44.078;2023-10-13T17:41:38;68.15;;;34.70;;
55756;SDS011;41676;44.610;44.078;2023-10-13T17:46:39;61.30;;;34.83;;
55756;SDS011;41676;44.610;44.078;2023-10-13T17:51:40;52.30;;;29.77;;
55756;SDS011;41676;44.610;44.078;2023-10-13T17:56:43;63.78;;;22.65;;
55756;SDS011;41676;44.610;44.078;2023-10-13T18:01:44;41.55;;;19.25;;
55756;SDS011;41676;44.610;44.078;2023-10-13T18:06:49;30.42;;;16.17;;
55756;SDS011;41676;44.610;44.078;2023-10-13T18:11:53;36.60;;;16.13;;
55756;SDS011;41676;44.610;44.078;2023-10-13T18:16:54;61.63;;;17.30;;
55756;SDS011;41676;44.610;44.078;2023-10-13T18:21:55;35.83;;;16.70;;
55756;SDS011;41676;44.610;44.078;2023-10-13T18:26:59;50.13;;;16.58;;
55756;SDS011;41676;44.610;44.078;2023-10-13T18:32:00;60.58;;;16.77;;
55756;SDS011;41676;44.610;44.078;2023-10-13T18:37:02;50.20;;;14.90;;
55756;SDS011;41676;44.610;44.078;2023-10-13T18:42:03;31.30;;;13.80;;
55756;SDS011;41676;44.610;44.078;2023-10-13T18:47:05;62.53;;;19.30;;
55756;SDS011;41676;44.610;44.078;2023-10-13T18:52:08;46.38;;;18.92;;
55756;SDS011;41676;44.610;44.078;2023-10-13T18:57:10;55.38;;;13.07;;
55756;SDS011;41676;44.610;44.078;2023-10-13T19:02:14;28.00;;;11.30;;
55756;SDS011;41676;44.610;44.078;2023-10-13T19:07:15;32.80;;;11.73;;
55756;SDS011;41676;44.610;44.078;2023-10-13T19:12:15;27.33;;;12.57;;
55756;SDS011;41676;44.610;44.078;2023-10-13T19:17:22;26.73;;;15.93;;
55756;SDS011;41676;44.610;44.078;2023-10-13T19:22:24;38.30;;;16.58;;
55756;SDS011;41676;44.610;44.078;2023-10-13T19:27:25;39.35;;;15.60;;
55756;SDS011;41676;44.610;44.078;2023-10-13T19:32:26;26.05;;;12.25;;
55756;SDS011;41676;44.610;44.078;2023-10-13T19:37:27;23.40;;;10.20;;
55756;SDS011;41676;44.610;44.078;2023-10-13T19:42:29;25.73;;;9.07;;
55756;SDS011;41676;44.610;44.078;2023-10-13T19:47:29;21.13;;;6.97;;
55756;SDS011;41676;44.610;44.078;2023-10-13T19:52:30;36.67;;;8.05;;
55756;SDS011;41676;44.610;44.078;2023-10-13T19:57:32;31.27;;;10.85;;
55756;SDS011;41676;44.610;44.078;2023-10-13T20:02:35;27.65;;;12.45;;
55756;SDS011;41676;44.610;44.078;2023-10-13T20:07:39;18.87;;;10.07;;
55756;SDS011;41676;44.610;44.078;2023-10-13T20:12:41;25.27;;;9.60;;
55756;SDS011;41676;44.610;44.078;2023-10-13T20:17:44;17.45;;;8.73;;
55756;SDS011;41676;44.610;44.078;2023-10-13T20:22:45;27.45;;;9.55;;
55756;SDS011;41676;44.610;44.078;2023-10-13T20:27:47;20.58;;;9.82;;
55756;SDS011;41676;44.610;44.078;2023-10-13T20:32:48;33.15;;;9.38;;
55756;SDS011;41676;44.610;44.078;2023-10-13T20:37:49;21.38;;;11.00;;
55756;SDS011;41676;44.610;44.078;2023-10-13T20:42:52;22.17;;;9.63;;
55756;SDS011;41676;44.610;44.078;2023-10-13T20:47:59;36.35;;;11.10;;
55756;SDS011;41676;44.610;44.078;2023-10-13T20:53:00;31.00;;;9.68;;
55756;SDS011;41676;44.610;44.078;2023-10-13T20:58:02;44.42;;;9.50;;
55756;SDS011;41676;44.610;44.078;2023-10-13T21:03:03;38.42;;;9.32;;
55756;SDS011;41676;44.610;44.078;2023-10-13T21:08:07;16.48;;;7.32;;
55756;SDS011;41676;44.610;44.078;2023-10-13T21:13:08;18.77;;;7.05;;
55756;SDS011;41676;44.610;44.078;2023-10-13T21:18:11;45.13;;;8.33;;
55756;SDS011;41676;44.610;44.078;2023-10-13T21:23:12;26.25;;;7.40;;
55756;SDS011;41676;44.610;44.078;2023-10-13T21:28:13;36.33;;;7.90;;
55756;SDS011;41676;44.610;44.078;2023-10-13T21:33:13;18.08;;;6.00;;
55756;SDS011;41676;44.610;44.078;2023-10-13T21:38:14;30.88;;;6.05;;
55756;SDS011;41676;44.610;44.078;2023-10-13T21:43:16;19.13;;;5.85;;
55756;SDS011;41676;44.610;44.078;2023-10-13T21:48:17;12.73;;;6.03;;
55756;SDS011;41676;44.610;44.078;2023-10-13T21:53:18;21.73;;;6.03;;
55756;SDS011;41676;44.610;44.078;2023-10-13T21:58:19;17.83;;;5.60;;
55756;SDS011;41676;44.610;44.078;2023-10-13T22:03:22;16.33;;;5.65;;
55756;SDS011;41676;44.610;44.078;2023-10-13T22:08:24;12.35;;;4.85;;
55756;SDS011;41676;44.610;44.078;2023-10-13T22:13:24;17.00;;;5.78;;
55756;SDS011;41676;44.610;44.078;2023-10-13T22:18:25;13.75;;;5.70;;
55756;SDS011;41676;44.610;44.078;2023-10-13T22:23:26;14.73;;;6.10;;
55756;SDS011;41676;44.610;44.078;2023-10-13T22:28:27;13.15;;;5.90;;
55756;SDS011;41676;44.610;44.078;2023-10-13T22:33:28;16.80;;;6.60;;
55756;SDS011;41676;44.610;44.078;2023-10-13T22:38:29;17.75;;;6.80;;
55756;SDS011;41676;44.610;44.078;2023-10-13T22:43:30;17.63;;;6.55;;
55756;SDS011;41676;44.610;44.078;2023-10-13T22:48:31;21.48;;;7.40;;
55756;SDS011;41676;44.610;44.078;2023-10-13T22:53:34;23.65;;;7.50;;
55756;SDS011;41676;44.610;44.078;2023-10-13T22:58:35;34.42;;;7.40;;
55756;SDS011;41676;44.610;44.078;2023-10-13T23:03:37;20.27;;;7.18;;
55756;SDS011;41676;44.610;44.078;2023-10-13T23:08:42;18.50;;;6.10;;
55756;SDS011;41676;44.610;44.078;2023-10-13T23:13:44;31.55;;;7.20;;
55756;SDS011;41676;44.610;44.078;2023-10-13T23:18:45;33.28;;;9.30;;
55756;SDS011;41676;44.610;44.078;2023-10-13T23:23:48;23.88;;;9.75;;
55756;SDS011;41676;44.610;44.078;2023-10-13T23:28:49;32.63;;;8.55;;
55756;SDS011;41676;44.610;44.078;2023-10-13T23:38:54;21.38;;;8.27;;
55756;SDS011;41676;44.610;44.078;2023-10-13T23:44:09;29.17;;;9.05;;
55756;SDS011;41676;44.610;44.078;2023-10-13T23:49:17;30.52;;;9.38;;
55756;SDS011;41676;44.610;44.078;2023-10-13T23:54:19;27.90;;;9.30;;
55756;SDS011;41676;44.610;44.078;2023-10-13T23:59:20;26.75;;;9.25;;
